sensor_id;sensor_type;location;lat;lon;timestamp;temperature;humidity
16655;DHT22;8441;51.344;7.022;2023-06-22T00:01:46;21.50;99.90
16655;DHT22;8441;51.344;7.022;2023-06-22T00:04:13;21.50;99.90
16655;DHT22;8441;51.344;7.022;2023-06-22T00:06:40;21.50;99.90
16655;DHT22;8441;51.344;7.022;2023-06-22T00:09:08;21.50;99.90
16655;DHT22;8441;51.344;7.022;2023-06-22T00:11:37;21.50;99.90
16655;DHT22;8441;51.344;7.022;2023-06-22T00:14:05;21.40;99.90
16655;DHT22;8441;51.344;7.022;2023-06-22T00:16:32;21.40;99.90
16655;DHT22;8441;51.344;7.022;2023-06-22T00:19:00;21.40;99.90
16655;DHT22;8441;51.344;7.022;2023-06-22T00:21:28;21.40;99.90
16655;DHT22;8441;51.344;7.022;2023-06-22T00:23:55;21.30;99.90
16655;DHT22;8441;51.344;7.022;2023-06-22T00:26:23;21.30;99.90
16655;DHT22;8441;51.344;7.022;2023-06-22T00:28:52;21.20;99.90
16655;DHT22;8441;51.344;7.022;2023-06-22T00:31:19;21.20;99.90
16655;DHT22;8441;51.344;7.022;2023-06-22T00:33:46;21.20;99.90
16655;DHT22;8441;51.344;7.022;2023-06-22T00:36:16;21.10;99.90
16655;DHT22;8441;51.344;7.022;2023-06-22T00:38:45;21.10;99.90
16655;DHT22;8441;51.344;7.022;2023-06-22T00:41:12;21.10;99.90
16655;DHT22;8441;51.344;7.022;2023-06-22T00:43:39;21.00;99.90
16655;DHT22;8441;51.344;7.022;2023-06-22T00:46:09;21.10;99.90
16655;DHT22;8441;51.344;7.022;2023-06-22T00:48:36;21.00;99.90
16655;DHT22;8441;51.344;7.022;2023-06-22T00:51:04;21.00;99.90
16655;DHT22;8441;51.344;7.022;2023-06-22T00:53:31;20.90;99.90
16655;DHT22;8441;51.344;7.022;2023-06-22T00:56:01;20.90;99.90
16655;DHT22;8441;51.344;7.022;2023-06-22T00:58:29;20.90;99.90
16655;DHT22;8441;51.344;7.022;2023-06-22T01:00:57;20.90;99.90
16655;DHT22;8441;51.344;7.022;2023-06-22T01:03:27;20.90;99.90
16655;DHT22;8441;51.344;7.022;2023-06-22T01:05:59;20.90;99.90
16655;DHT22;8441;51.344;7.022;2023-06-22T01:08:33;20.90;99.90
16655;DHT22;8441;51.344;7.022;2023-06-22T01:11:07;20.90;99.90
16655;DHT22;8441;51.344;7.022;2023-06-22T01:13:45;20.80;99.90
16655;DHT22;8441;51.344;7.022;2023-06-22T01:16:35;20.90;99.90
16655;DHT22;8441;51.344;7.022;2023-06-22T01:19:23;20.80;99.90
16655;DHT22;8441;51.344;7.022;2023-06-22T01:21:55;20.80;99.90
16655;DHT22;8441;51.344;7.022;2023-06-22T01:24:26;20.80;99.90
16655;DHT22;8441;51.344;7.022;2023-06-22T01:27:04;20.80;99.90
16655;DHT22;8441;51.344;7.022;2023-06-22T01:29:38;20.80;99.90
16655;DHT22;8441;51.344;7.022;2023-06-22T01:32:06;20.80;99.90
16655;DHT22;8441;51.344;7.022;2023-06-22T01:34:33;20.70;99.90
16655;DHT22;8441;51.344;7.022;2023-06-22T01:37:01;20.80;99.90
16655;DHT22;8441;51.344;7.022;2023-06-22T01:39:29;20.70;99.90
16655;DHT22;8441;51.344;7.022;2023-06-22T01:41:57;20.80;99.90
16655;DHT22;8441;51.344;7.022;2023-06-22T01:47:06;20.80;99.90
16655;DHT22;8441;51.344;7.022;2023-06-22T01:49:34;20.80;99.90
16655;DHT22;8441;51.344;7.022;2023-06-22T01:52:01;20.80;99.90
16655;DHT22;8441;51.344;7.022;2023-06-22T01:54:29;20.70;99.90
16655;DHT22;8441;51.344;7.022;2023-06-22T01:56:56;20.70;99.90
16655;DHT22;8441;51.344;7.022;2023-06-22T01:59:27;20.60;99.90
16655;DHT22;8441;51.344;7.022;2023-06-22T02:02:00;20.50;99.90
16655;DHT22;8441;51.344;7.022;2023-06-22T02:04:34;20.50;99.90
16655;DHT22;8441;51.344;7.022;2023-06-22T02:07:05;20.50;99.90
16655;DHT22;8441;51.344;7.022;2023-06-22T02:09:35;20.40;99.90
16655;DHT22;8441;51.344;7.022;2023-06-22T02:12:05;20.40;99.90
16655;DHT22;8441;51.344;7.022;2023-06-22T02:14:34;20.30;99.90
16655;DHT22;8441;51.344;7.022;2023-06-22T02:17:02;20.30;99.90
16655;DHT22;8441;51.344;7.022;2023-06-22T02:19:31;20.30;99.90
16655;DHT22;8441;51.344;7.022;2023-06-22T02:21:59;20.20;99.90
16655;DHT22;8441;51.344;7.022;2023-06-22T02:24:27;20.10;99.90
16655;DHT22;8441;51.344;7.022;2023-06-22T02:26:57;20.10;99.90
16655;DHT22;8441;51.344;7.022;2023-06-22T02:29:24;20.10;99.90
16655;DHT22;8441;51.344;7.022;2023-06-22T02:31:52;20.10;99.90
16655;DHT22;8441;51.344;7.022;2023-06-22T02:34:20;20.00;99.90
16655;DHT22;8441;51.344;7.022;2023-06-22T02:36:49;20.00;99.90
16655;DHT22;8441;51.344;7.022;2023-06-22T02:39:19;19.90;99.90
16655;DHT22;8441;51.344;7.022;2023-06-22T02:41:47;19.90;99.90
16655;DHT22;8441;51.344;7.022;2023-06-22T02:44:15;19.90;99.90
16655;DHT22;8441;51.344;7.022;2023-06-22T02:46:42;19.80;99.90
16655;DHT22;8441;51.344;7.022;2023-06-22T02:49:10;19.80;99.90
16655;DHT22;8441;51.344;7.022;2023-06-22T02:51:38;19.80;99.90
16655;DHT22;8441;51.344;7.022;2023-06-22T02:54:07;19.80;99.90
16655;DHT22;8441;51.344;7.022;2023-06-22T02:56:34;19.80;99.90
16655;DHT22;8441;51.344;7.022;2023-06-22T02:59:02;19.80;99.90
16655;DHT22;8441;51.344;7.022;2023-06-22T03:01:29;19.80;99.90
16655;DHT22;8441;51.344;7.022;2023-06-22T03:04:03;19.80;99.90
16655;DHT22;8441;51.344;7.022;2023-06-22T03:06:31;19.70;99.90
16655;DHT22;8441;51.344;7.022;2023-06-22T03:08:59;19.70;99.90
16655;DHT22;8441;51.344;7.022;2023-06-22T03:11:28;19.70;99.90
16655;DHT22;8441;51.344;7.022;2023-06-22T03:13:55;19.70;99.90
16655;DHT22;8441;51.344;7.022;2023-06-22T03:16:22;19.60;99.90
16655;DHT22;8441;51.344;7.022;2023-06-22T03:18:49;19.50;99.90
16655;DHT22;8441;51.344;7.022;2023-06-22T03:21:16;19.50;99.90
16655;DHT22;8441;51.344;7.022;2023-06-22T03:23:44;19.50;99.90
16655;DHT22;8441;51.344;7.022;2023-06-22T03:26:11;19.50;99.90
16655;DHT22;8441;51.344;7.022;2023-06-22T03:28:40;19.50;99.90
16655;DHT22;8441;51.344;7.022;2023-06-22T03:31:07;19.40;99.90
16655;DHT22;8441;51.344;7.022;2023-06-22T03:33:35;19.40;99.90
16655;DHT22;8441;51.344;7.022;2023-06-22T03:36:02;19.40;99.90
16655;DHT22;8441;51.344;7.022;2023-06-22T03:38:30;19.40;99.90
16655;DHT22;8441;51.344;7.022;2023-06-22T03:40:57;19.50;99.90
16655;DHT22;8441;51.344;7.022;2023-06-22T03:43:24;19.50;99.90
16655;DHT22;8441;51.344;7.022;2023-06-22T03:45:53;19.50;99.90
16655;DHT22;8441;51.344;7.022;2023-06-22T03:48:20;19.50;99.90
16655;DHT22;8441;51.344;7.022;2023-06-22T03:50:47;19.60;99.90
16655;DHT22;8441;51.344;7.022;2023-06-22T03:53:14;19.50;99.90
16655;DHT22;8441;51.344;7.022;2023-06-22T03:55:49;19.60;99.90
16655;DHT22;8441;51.344;7.022;2023-06-22T03:58:17;19.70;99.90
16655;DHT22;8441;51.344;7.022;2023-06-22T04:00:45;19.80;99.90
16655;DHT22;8441;51.344;7.022;2023-06-22T04:03:15;19.90;99.90
16655;DHT22;8441;51.344;7.022;2023-06-22T04:05:44;20.00;99.90
16655;DHT22;8441;51.344;7.022;2023-06-22T04:08:12;20.00;99.90
16655;DHT22;8441;51.344;7.022;2023-06-22T04:10:40;20.10;99.90
16655;DHT22;8441;51.344;7.022;2023-06-22T04:13:07;20.10;99.90
16655;DHT22;8441;51.344;7.022;2023-06-22T04:15:34;20.00;99.90
16655;DHT22;8441;51.344;7.022;2023-06-22T04:18:01;20.00;99.90
16655;DHT22;8441;51.344;7.022;2023-06-22T04:20:31;20.10;99.90
16655;DHT22;8441;51.344;7.022;2023-06-22T04:22:58;19.90;99.90
16655;DHT22;8441;51.344;7.022;2023-06-22T04:25:25;19.60;99.90
16655;DHT22;8441;51.344;7.022;2023-06-22T04:27:52;19.30;99.90
16655;DHT22;8441;51.344;7.022;2023-06-22T04:30:19;19.20;99.90
16655;DHT22;8441;51.344;7.022;2023-06-22T04:32:46;19.10;99.90
16655;DHT22;8441;51.344;7.022;2023-06-22T04:35:23;19.00;99.90
16655;DHT22;8441;51.344;7.022;2023-06-22T04:37:53;19.00;99.90
16655;DHT22;8441;51.344;7.022;2023-06-22T04:40:22;19.00;99.90
16655;DHT22;8441;51.344;7.022;2023-06-22T04:42:49;18.90;99.90
16655;DHT22;8441;51.344;7.022;2023-06-22T04:45:19;18.80;99.90
16655;DHT22;8441;51.344;7.022;2023-06-22T04:47:47;18.80;99.90
16655;DHT22;8441;51.344;7.022;2023-06-22T04:50:14;18.80;99.90
16655;DHT22;8441;51.344;7.022;2023-06-22T04:52:42;18.80;99.90
16655;DHT22;8441;51.344;7.022;2023-06-22T04:55:10;18.80;99.90
16655;DHT22;8441;51.344;7.022;2023-06-22T04:57:37;18.80;99.90
16655;DHT22;8441;51.344;7.022;2023-06-22T05:00:06;18.80;99.90
16655;DHT22;8441;51.344;7.022;2023-06-22T05:02:43;18.80;99.90
16655;DHT22;8441;51.344;7.022;2023-06-22T05:05:10;18.80;99.90
16655;DHT22;8441;51.344;7.022;2023-06-22T05:07:40;18.80;99.90
16655;DHT22;8441;51.344;7.022;2023-06-22T05:10:11;18.80;99.90
16655;DHT22;8441;51.344;7.022;2023-06-22T05:12:39;18.80;99.90
16655;DHT22;8441;51.344;7.022;2023-06-22T05:15:08;18.90;99.90
16655;DHT22;8441;51.344;7.022;2023-06-22T05:17:36;18.90;99.90
16655;DHT22;8441;51.344;7.022;2023-06-22T05:20:08;18.90;99.90
16655;DHT22;8441;51.344;7.022;2023-06-22T05:22:35;18.90;99.90
16655;DHT22;8441;51.344;7.022;2023-06-22T05:25:02;19.00;99.90
16655;DHT22;8441;51.344;7.022;2023-06-22T05:34:10;19.20;99.90
16655;DHT22;8441;51.344;7.022;2023-06-22T05:36:37;19.20;99.90
16655;DHT22;8441;51.344;7.022;2023-06-22T05:39:11;19.30;99.90
16655;DHT22;8441;51.344;7.022;2023-06-22T05:41:39;19.40;99.90
16655;DHT22;8441;51.344;7.022;2023-06-22T05:44:06;19.30;99.90
16655;DHT22;8441;51.344;7.022;2023-06-22T05:46:33;19.40;99.90
16655;DHT22;8441;51.344;7.022;2023-06-22T05:49:00;19.40;99.90
16655;DHT22;8441;51.344;7.022;2023-06-22T05:51:28;19.40;99.90
16655;DHT22;8441;51.344;7.022;2023-06-22T05:53:55;19.50;99.90
16655;DHT22;8441;51.344;7.022;2023-06-22T05:56:22;19.40;99.90
16655;DHT22;8441;51.344;7.022;2023-06-22T05:58:49;19.50;99.90
16655;DHT22;8441;51.344;7.022;2023-06-22T06:01:16;19.50;99.90
16655;DHT22;8441;51.344;7.022;2023-06-22T06:03:43;19.50;99.90
16655;DHT22;8441;51.344;7.022;2023-06-22T06:06:10;19.50;99.90
16655;DHT22;8441;51.344;7.022;2023-06-22T06:08:39;19.50;99.90
16655;DHT22;8441;51.344;7.022;2023-06-22T06:11:06;19.60;99.90
16655;DHT22;8441;51.344;7.022;2023-06-22T06:13:33;19.70;99.90
16655;DHT22;8441;51.344;7.022;2023-06-22T06:16:00;19.70;99.90
16655;DHT22;8441;51.344;7.022;2023-06-22T06:18:27;19.80;99.90
16655;DHT22;8441;51.344;7.022;2023-06-22T06:20:54;19.70;99.90
16655;DHT22;8441;51.344;7.022;2023-06-22T06:23:21;19.80;99.90
16655;DHT22;8441;51.344;7.022;2023-06-22T06:25:49;19.80;99.90
16655;DHT22;8441;51.344;7.022;2023-06-22T06:28:16;20.10;99.90
16655;DHT22;8441;51.344;7.022;2023-06-22T06:30:43;20.20;99.90
16655;DHT22;8441;51.344;7.022;2023-06-22T06:33:13;20.40;99.90
16655;DHT22;8441;51.344;7.022;2023-06-22T06:35:40;20.50;99.90
16655;DHT22;8441;51.344;7.022;2023-06-22T06:38:07;20.70;99.90
16655;DHT22;8441;51.344;7.022;2023-06-22T06:40:34;20.80;99.90
16655;DHT22;8441;51.344;7.022;2023-06-22T06:43:02;20.80;99.90
16655;DHT22;8441;51.344;7.022;2023-06-22T06:45:29;20.60;99.90
16655;DHT22;8441;51.344;7.022;2023-06-22T06:47:58;20.40;99.90
16655;DHT22;8441;51.344;7.022;2023-06-22T06:50:25;20.30;99.90
16655;DHT22;8441;51.344;7.022;2023-06-22T06:52:52;20.20;99.90
16655;DHT22;8441;51.344;7.022;2023-06-22T06:55:19;20.00;99.90
16655;DHT22;8441;51.344;7.022;2023-06-22T06:57:46;19.90;99.90
16655;DHT22;8441;51.344;7.022;2023-06-22T07:00:16;19.90;99.90
16655;DHT22;8441;51.344;7.022;2023-06-22T07:02:44;19.90;99.90
16655;DHT22;8441;51.344;7.022;2023-06-22T07:05:13;20.00;99.90
16655;DHT22;8441;51.344;7.022;2023-06-22T07:07:40;20.00;99.90
16655;DHT22;8441;51.344;7.022;2023-06-22T07:10:08;20.10;99.90
16655;DHT22;8441;51.344;7.022;2023-06-22T07:12:36;20.20;99.90
16655;DHT22;8441;51.344;7.022;2023-06-22T07:15:04;20.10;99.90
16655;DHT22;8441;51.344;7.022;2023-06-22T07:17:35;20.10;99.90
16655;DHT22;8441;51.344;7.022;2023-06-22T07:20:03;20.00;99.90
16655;DHT22;8441;51.344;7.022;2023-06-22T07:22:34;20.10;99.90
16655;DHT22;8441;51.344;7.022;2023-06-22T07:25:01;20.00;99.90
16655;DHT22;8441;51.344;7.022;2023-06-22T07:27:30;20.00;99.90
16655;DHT22;8441;51.344;7.022;2023-06-22T07:30:01;20.10;99.90
16655;DHT22;8441;51.344;7.022;2023-06-22T07:32:28;20.10;99.90
16655;DHT22;8441;51.344;7.022;2023-06-22T07:34:57;20.10;99.90
16655;DHT22;8441;51.344;7.022;2023-06-22T07:37:24;20.00;99.90
16655;DHT22;8441;51.344;7.022;2023-06-22T07:39:53;19.90;99.90
16655;DHT22;8441;51.344;7.022;2023-06-22T07:42:27;20.00;99.90
16655;DHT22;8441;51.344;7.022;2023-06-22T07:44:58;20.10;99.90
16655;DHT22;8441;51.344;7.022;2023-06-22T07:47:25;20.10;99.90
16655;DHT22;8441;51.344;7.022;2023-06-22T07:49:54;20.00;99.90
16655;DHT22;8441;51.344;7.022;2023-06-22T07:52:25;20.10;99.90
16655;DHT22;8441;51.344;7.022;2023-06-22T07:54:52;20.00;99.90
16655;DHT22;8441;51.344;7.022;2023-06-22T07:57:19;19.90;99.90
16655;DHT22;8441;51.344;7.022;2023-06-22T07:59:46;19.90;99.90
16655;DHT22;8441;51.344;7.022;2023-06-22T08:02:13;20.00;99.90
16655;DHT22;8441;51.344;7.022;2023-06-22T08:04:41;20.10;99.90
16655;DHT22;8441;51.344;7.022;2023-06-22T08:07:08;20.00;99.90
16655;DHT22;8441;51.344;7.022;2023-06-22T08:09:37;20.00;99.90
16655;DHT22;8441;51.344;7.022;2023-06-22T08:12:05;19.90;99.90
16655;DHT22;8441;51.344;7.022;2023-06-22T08:14:32;19.90;99.90
16655;DHT22;8441;51.344;7.022;2023-06-22T08:17:01;20.00;99.90
16655;DHT22;8441;51.344;7.022;2023-06-22T08:19:28;20.10;99.90
16655;DHT22;8441;51.344;7.022;2023-06-22T08:21:55;20.40;99.90
16655;DHT22;8441;51.344;7.022;2023-06-22T08:24:23;20.70;99.90
16655;DHT22;8441;51.344;7.022;2023-06-22T08:26:51;21.20;99.90
16655;DHT22;8441;51.344;7.022;2023-06-22T08:29:18;21.40;99.90
16655;DHT22;8441;51.344;7.022;2023-06-22T08:31:45;21.80;99.90
16655;DHT22;8441;51.344;7.022;2023-06-22T08:34:13;22.00;99.90
16655;DHT22;8441;51.344;7.022;2023-06-22T08:36:40;22.10;99.90
16655;DHT22;8441;51.344;7.022;2023-06-22T08:39:08;22.30;99.90
16655;DHT22;8441;51.344;7.022;2023-06-22T08:41:35;22.30;99.90
16655;DHT22;8441;51.344;7.022;2023-06-22T08:44:04;22.50;99.90
16655;DHT22;8441;51.344;7.022;2023-06-22T08:46:31;22.80;99.90
16655;DHT22;8441;51.344;7.022;2023-06-22T08:48:59;22.80;99.90
16655;DHT22;8441;51.344;7.022;2023-06-22T08:51:26;22.80;99.90
16655;DHT22;8441;51.344;7.022;2023-06-22T08:53:54;22.70;99.90
16655;DHT22;8441;51.344;7.022;2023-06-22T08:56:21;22.90;99.90
16655;DHT22;8441;51.344;7.022;2023-06-22T08:58:48;23.20;99.90
16655;DHT22;8441;51.344;7.022;2023-06-22T09:01:16;23.60;99.90
16655;DHT22;8441;51.344;7.022;2023-06-22T09:03:44;24.00;99.90
16655;DHT22;8441;51.344;7.022;2023-06-22T09:06:19;24.30;99.90
16655;DHT22;8441;51.344;7.022;2023-06-22T09:08:46;24.30;99.90
16655;DHT22;8441;51.344;7.022;2023-06-22T09:11:13;24.40;99.90
16655;DHT22;8441;51.344;7.022;2023-06-22T09:13:41;24.30;99.90
16655;DHT22;8441;51.344;7.022;2023-06-22T09:16:08;24.10;99.90
16655;DHT22;8441;51.344;7.022;2023-06-22T09:18:36;23.80;99.90
16655;DHT22;8441;51.344;7.022;2023-06-22T09:21:03;23.80;99.90
16655;DHT22;8441;51.344;7.022;2023-06-22T09:23:31;23.90;99.90
16655;DHT22;8441;51.344;7.022;2023-06-22T09:25:58;24.00;99.90
16655;DHT22;8441;51.344;7.022;2023-06-22T09:28:25;24.20;99.90
16655;DHT22;8441;51.344;7.022;2023-06-22T09:30:52;24.10;99.90
16655;DHT22;8441;51.344;7.022;2023-06-22T09:33:25;24.40;99.90
16655;DHT22;8441;51.344;7.022;2023-06-22T09:35:53;24.90;99.90
16655;DHT22;8441;51.344;7.022;2023-06-22T09:38:20;25.30;99.90
16655;DHT22;8441;51.344;7.022;2023-06-22T09:40:47;25.50;99.90
16655;DHT22;8441;51.344;7.022;2023-06-22T09:43:14;25.30;99.90
16655;DHT22;8441;51.344;7.022;2023-06-22T09:45:41;25.50;99.90
16655;DHT22;8441;51.344;7.022;2023-06-22T09:48:08;25.70;99.90
16655;DHT22;8441;51.344;7.022;2023-06-22T09:50:36;25.60;99.90
16655;DHT22;8441;51.344;7.022;2023-06-22T09:53:05;25.20;99.90
16655;DHT22;8441;51.344;7.022;2023-06-22T09:55:32;25.30;99.90
16655;DHT22;8441;51.344;7.022;2023-06-22T09:57:59;25.40;99.90
16655;DHT22;8441;51.344;7.022;2023-06-22T10:00:26;25.60;99.90
16655;DHT22;8441;51.344;7.022;2023-06-22T10:02:53;25.50;99.90
16655;DHT22;8441;51.344;7.022;2023-06-22T10:05:21;25.70;99.90
16655;DHT22;8441;51.344;7.022;2023-06-22T10:07:48;25.70;99.90
16655;DHT22;8441;51.344;7.022;2023-06-22T10:10:17;25.80;99.90
16655;DHT22;8441;51.344;7.022;2023-06-22T10:12:45;25.90;99.90
16655;DHT22;8441;51.344;7.022;2023-06-22T10:15:13;25.90;99.90
16655;DHT22;8441;51.344;7.022;2023-06-22T10:17:41;26.10;99.90
16655;DHT22;8441;51.344;7.022;2023-06-22T10:20:08;26.10;99.90
16655;DHT22;8441;51.344;7.022;2023-06-22T10:22:39;26.20;99.90
16655;DHT22;8441;51.344;7.022;2023-06-22T10:25:07;26.30;99.90
16655;DHT22;8441;51.344;7.022;2023-06-22T10:27:36;26.30;99.90
16655;DHT22;8441;51.344;7.022;2023-06-22T10:30:06;26.40;99.90
16655;DHT22;8441;51.344;7.022;2023-06-22T10:32:33;26.40;99.90
16655;DHT22;8441;51.344;7.022;2023-06-22T10:35:00;26.30;99.90
16655;DHT22;8441;51.344;7.022;2023-06-22T10:37:27;26.20;99.90
16655;DHT22;8441;51.344;7.022;2023-06-22T10:39:54;26.10;99.90
16655;DHT22;8441;51.344;7.022;2023-06-22T10:42:22;25.80;99.90
16655;DHT22;8441;51.344;7.022;2023-06-22T10:44:50;25.70;99.90
16655;DHT22;8441;51.344;7.022;2023-06-22T10:47:17;25.60;99.90
16655;DHT22;8441;51.344;7.022;2023-06-22T10:49:44;25.70;99.90
16655;DHT22;8441;51.344;7.022;2023-06-22T10:52:11;25.70;99.90
16655;DHT22;8441;51.344;7.022;2023-06-22T10:54:38;25.60;99.90
16655;DHT22;8441;51.344;7.022;2023-06-22T10:57:06;25.50;99.90
16655;DHT22;8441;51.344;7.022;2023-06-22T10:59:33;25.40;99.90
16655;DHT22;8441;51.344;7.022;2023-06-22T11:02:01;25.30;99.90
16655;DHT22;8441;51.344;7.022;2023-06-22T11:04:28;25.10;99.90
16655;DHT22;8441;51.344;7.022;2023-06-22T11:06:55;24.70;99.90
16655;DHT22;8441;51.344;7.022;2023-06-22T11:09:22;24.40;99.90
16655;DHT22;8441;51.344;7.022;2023-06-22T11:11:50;24.00;99.90
16655;DHT22;8441;51.344;7.022;2023-06-22T11:14:19;23.80;99.90
16655;DHT22;8441;51.344;7.022;2023-06-22T11:16:46;23.60;99.90
16655;DHT22;8441;51.344;7.022;2023-06-22T11:19:14;23.40;99.90
16655;DHT22;8441;51.344;7.022;2023-06-22T11:21:41;23.20;99.90
16655;DHT22;8441;51.344;7.022;2023-06-22T11:24:08;23.10;99.90
16655;DHT22;8441;51.344;7.022;2023-06-22T11:26:38;23.00;99.90
16655;DHT22;8441;51.344;7.022;2023-06-22T11:29:05;22.80;99.90
16655;DHT22;8441;51.344;7.022;2023-06-22T11:31:34;22.80;99.90
16655;DHT22;8441;51.344;7.022;2023-06-22T11:34:01;22.80;99.90
16655;DHT22;8441;51.344;7.022;2023-06-22T11:36:30;22.80;99.90
16655;DHT22;8441;51.344;7.022;2023-06-22T11:39:00;22.70;99.90
16655;DHT22;8441;51.344;7.022;2023-06-22T11:41:27;22.60;99.90
16655;DHT22;8441;51.344;7.022;2023-06-22T11:43:54;22.50;99.90
16655;DHT22;8441;51.344;7.022;2023-06-22T11:46:21;22.40;99.90
16655;DHT22;8441;51.344;7.022;2023-06-22T11:48:48;22.40;99.90
16655;DHT22;8441;51.344;7.022;2023-06-22T11:51:15;22.30;99.90
16655;DHT22;8441;51.344;7.022;2023-06-22T11:53:44;22.20;99.90
16655;DHT22;8441;51.344;7.022;2023-06-22T11:56:11;22.00;99.90
16655;DHT22;8441;51.344;7.022;2023-06-22T11:58:38;21.80;99.90
16655;DHT22;8441;51.344;7.022;2023-06-22T12:01:05;21.70;99.90
16655;DHT22;8441;51.344;7.022;2023-06-22T12:03:32;21.80;99.90
16655;DHT22;8441;51.344;7.022;2023-06-22T12:05:59;21.90;99.90
16655;DHT22;8441;51.344;7.022;2023-06-22T12:08:26;21.90;99.90
16655;DHT22;8441;51.344;7.022;2023-06-22T12:10:55;22.00;99.90
16655;DHT22;8441;51.344;7.022;2023-06-22T12:13:22;22.00;99.90
16655;DHT22;8441;51.344;7.022;2023-06-22T12:15:49;22.10;99.90
16655;DHT22;8441;51.344;7.022;2023-06-22T12:18:17;22.10;99.90
16655;DHT22;8441;51.344;7.022;2023-06-22T12:20:46;22.10;99.90
16655;DHT22;8441;51.344;7.022;2023-06-22T12:23:14;22.20;99.90
16655;DHT22;8441;51.344;7.022;2023-06-22T12:25:41;22.20;99.90
16655;DHT22;8441;51.344;7.022;2023-06-22T12:28:09;22.20;99.90
16655;DHT22;8441;51.344;7.022;2023-06-22T12:30:36;22.30;99.90
16655;DHT22;8441;51.344;7.022;2023-06-22T12:33:03;22.30;99.90
16655;DHT22;8441;51.344;7.022;2023-06-22T12:35:31;22.30;99.90
16655;DHT22;8441;51.344;7.022;2023-06-22T12:37:58;22.30;99.90
16655;DHT22;8441;51.344;7.022;2023-06-22T12:40:25;22.30;99.90
16655;DHT22;8441;51.344;7.022;2023-06-22T12:42:52;22.20;99.90
16655;DHT22;8441;51.344;7.022;2023-06-22T12:45:20;22.10;99.90
16655;DHT22;8441;51.344;7.022;2023-06-22T12:47:48;22.00;99.90
16655;DHT22;8441;51.344;7.022;2023-06-22T12:50:15;21.80;99.90
16655;DHT22;8441;51.344;7.022;2023-06-22T12:52:42;21.60;99.90
16655;DHT22;8441;51.344;7.022;2023-06-22T12:55:10;21.60;99.90
16655;DHT22;8441;51.344;7.022;2023-06-22T12:57:37;21.80;99.90
16655;DHT22;8441;51.344;7.022;2023-06-22T13:00:05;22.10;99.90
16655;DHT22;8441;51.344;7.022;2023-06-22T13:02:35;22.10;99.90
16655;DHT22;8441;51.344;7.022;2023-06-22T13:05:03;22.40;99.90
16655;DHT22;8441;51.344;7.022;2023-06-22T13:07:31;22.50;99.90
16655;DHT22;8441;51.344;7.022;2023-06-22T13:09:58;22.80;99.90
16655;DHT22;8441;51.344;7.022;2023-06-22T13:12:25;23.00;99.90
16655;DHT22;8441;51.344;7.022;2023-06-22T13:14:51;23.20;99.90
16655;DHT22;8441;51.344;7.022;2023-06-22T13:17:20;23.20;99.90
16655;DHT22;8441;51.344;7.022;2023-06-22T13:19:49;23.20;99.90
16655;DHT22;8441;51.344;7.022;2023-06-22T13:22:27;22.90;99.90
16655;DHT22;8441;51.344;7.022;2023-06-22T13:24:54;22.70;99.90
16655;DHT22;8441;51.344;7.022;2023-06-22T13:27:22;22.50;99.90
16655;DHT22;8441;51.344;7.022;2023-06-22T13:29:49;22.30;99.90
16655;DHT22;8441;51.344;7.022;2023-06-22T13:32:17;22.30;99.90
16655;DHT22;8441;51.344;7.022;2023-06-22T13:34:44;22.30;99.90
16655;DHT22;8441;51.344;7.022;2023-06-22T13:37:12;22.20;99.90
16655;DHT22;8441;51.344;7.022;2023-06-22T13:49:45;23.10;99.90
16655;DHT22;8441;51.344;7.022;2023-06-22T13:52:14;23.20;99.90
16655;DHT22;8441;51.344;7.022;2023-06-22T13:54:41;23.30;99.90
16655;DHT22;8441;51.344;7.022;2023-06-22T13:57:08;23.40;99.90
16655;DHT22;8441;51.344;7.022;2023-06-22T13:59:35;23.30;99.90
16655;DHT22;8441;51.344;7.022;2023-06-22T14:02:03;23.10;99.90
16655;DHT22;8441;51.344;7.022;2023-06-22T14:04:30;23.00;99.90
16655;DHT22;8441;51.344;7.022;2023-06-22T14:06:58;22.70;99.90
16655;DHT22;8441;51.344;7.022;2023-06-22T14:09:26;22.60;99.90
16655;DHT22;8441;51.344;7.022;2023-06-22T14:11:54;22.60;99.90
16655;DHT22;8441;51.344;7.022;2023-06-22T14:14:22;22.50;99.90
16655;DHT22;8441;51.344;7.022;2023-06-22T14:16:49;22.50;99.90
16655;DHT22;8441;51.344;7.022;2023-06-22T14:19:17;22.40;99.90
16655;DHT22;8441;51.344;7.022;2023-06-22T14:21:45;22.30;99.90
16655;DHT22;8441;51.344;7.022;2023-06-22T14:24:12;22.30;99.90
16655;DHT22;8441;51.344;7.022;2023-06-22T14:26:40;22.30;99.90
16655;DHT22;8441;51.344;7.022;2023-06-22T14:29:07;22.40;99.90
16655;DHT22;8441;51.344;7.022;2023-06-22T14:31:35;22.60;99.90
16655;DHT22;8441;51.344;7.022;2023-06-22T14:34:02;22.70;99.90
16655;DHT22;8441;51.344;7.022;2023-06-22T14:36:31;22.70;99.90
16655;DHT22;8441;51.344;7.022;2023-06-22T14:38:58;22.70;99.90
16655;DHT22;8441;51.344;7.022;2023-06-22T14:41:25;22.60;99.90
16655;DHT22;8441;51.344;7.022;2023-06-22T14:43:54;22.60;99.90
16655;DHT22;8441;51.344;7.022;2023-06-22T14:46:21;22.60;99.90
16655;DHT22;8441;51.344;7.022;2023-06-22T14:48:48;22.50;99.90
16655;DHT22;8441;51.344;7.022;2023-06-22T14:51:16;22.30;99.90
16655;DHT22;8441;51.344;7.022;2023-06-22T14:53:44;22.20;99.90
16655;DHT22;8441;51.344;7.022;2023-06-22T14:56:12;22.20;99.90
16655;DHT22;8441;51.344;7.022;2023-06-22T14:58:41;22.40;99.90
16655;DHT22;8441;51.344;7.022;2023-06-22T15:01:12;22.60;99.90
16655;DHT22;8441;51.344;7.022;2023-06-22T15:03:39;22.70;99.90
16655;DHT22;8441;51.344;7.022;2023-06-22T15:06:08;22.70;99.90
16655;DHT22;8441;51.344;7.022;2023-06-22T15:08:37;22.60;99.90
16655;DHT22;8441;51.344;7.022;2023-06-22T15:11:04;22.50;99.90
16655;DHT22;8441;51.344;7.022;2023-06-22T15:13:32;22.20;99.90
16655;DHT22;8441;51.344;7.022;2023-06-22T15:15:59;21.90;99.90
16655;DHT22;8441;51.344;7.022;2023-06-22T15:18:28;21.90;99.90
16655;DHT22;8441;51.344;7.022;2023-06-22T15:20:55;22.10;99.90
16655;DHT22;8441;51.344;7.022;2023-06-22T15:23:24;22.20;99.90
16655;DHT22;8441;51.344;7.022;2023-06-22T15:25:51;22.20;99.90
16655;DHT22;8441;51.344;7.022;2023-06-22T15:28:19;22.00;99.90
16655;DHT22;8441;51.344;7.022;2023-06-22T15:30:46;21.90;99.90
16655;DHT22;8441;51.344;7.022;2023-06-22T15:33:14;21.90;99.90
16655;DHT22;8441;51.344;7.022;2023-06-22T15:35:42;21.90;99.90
16655;DHT22;8441;51.344;7.022;2023-06-22T15:38:10;21.80;99.90
16655;DHT22;8441;51.344;7.022;2023-06-22T15:40:37;21.80;99.90
16655;DHT22;8441;51.344;7.022;2023-06-22T15:43:04;21.70;99.90
16655;DHT22;8441;51.344;7.022;2023-06-22T15:45:32;21.60;99.90
16655;DHT22;8441;51.344;7.022;2023-06-22T15:47:59;21.20;99.90
16655;DHT22;8441;51.344;7.022;2023-06-22T15:50:26;20.90;99.90
16655;DHT22;8441;51.344;7.022;2023-06-22T15:52:54;20.70;99.90
16655;DHT22;8441;51.344;7.022;2023-06-22T15:55:22;20.60;99.90
16655;DHT22;8441;51.344;7.022;2023-06-22T15:57:49;20.50;99.90
16655;DHT22;8441;51.344;7.022;2023-06-22T16:00:17;20.50;99.90
16655;DHT22;8441;51.344;7.022;2023-06-22T16:02:45;20.40;99.90
16655;DHT22;8441;51.344;7.022;2023-06-22T16:05:13;20.40;99.90
16655;DHT22;8441;51.344;7.022;2023-06-22T16:07:40;20.30;99.90
16655;DHT22;8441;51.344;7.022;2023-06-22T16:10:09;20.30;99.90